createdAt,value
2017-09-19T00:00:10.091Z,18.47
2017-09-19T00:00:38.058Z,18.5
2017-09-19T00:01:05.945Z,18.51
2017-09-19T00:01:33.864Z,18.5
2017-09-19T00:02:02.010Z,18.51
2017-09-19T00:02:29.834Z,18.53
2017-09-19T00:02:57.840Z,18.6
2017-09-19T00:03:25.534Z,18.6
2017-09-19T00:03:53.425Z,18.5
2017-09-19T00:04:21.296Z,18.6
2017-09-19T00:04:49.409Z,18.59
2017-09-19T00:05:17.520Z,18.5
2017-09-19T00:05:45.518Z,18.54
2017-09-19T00:06:13.301Z,18.59
2017-09-19T00:06:41.112Z,18.61
2017-09-19T00:07:08.993Z,18.61
2017-09-19T00:07:36.968Z,18.47
2017-09-19T00:08:04.801Z,18.56
2017-09-19T00:08:32.706Z,18.53
2017-09-19T00:09:00.701Z,18.51
2017-09-19T00:09:28.796Z,18.47
2017-09-19T00:09:56.620Z,18.44
2017-09-19T00:10:24.495Z,18.45
2017-09-19T00:10:52.473Z,18.49
2017-09-19T00:11:20.378Z,18.51
2017-09-19T00:11:48.401Z,18.51
2017-09-19T00:12:16.298Z,18.53
2017-09-19T00:12:44.305Z,18.45
2017-09-19T00:13:12.190Z,18.45
2017-09-19T00:13:40.106Z,18.51
2017-09-19T00:14:08.320Z,18.49
2017-09-19T00:14:36.206Z,18.49
2017-09-19T00:15:04.015Z,18.51
2017-09-19T00:15:32.114Z,18.5
2017-09-19T00:15:59.973Z,18.5
2017-09-19T00:16:27.784Z,18.51
2017-09-19T00:16:55.663Z,18.5
2017-09-19T00:17:23.469Z,18.51
2017-09-19T00:17:51.363Z,18.51
2017-09-19T00:18:19.353Z,18.53
2017-09-19T00:18:47.246Z,18.54
2017-09-19T00:19:15.230Z,18.61
2017-09-19T00:19:43.140Z,18.65
2017-09-19T00:20:10.994Z,18.57
2017-09-19T00:20:38.972Z,18.59
2017-09-19T00:21:07.066Z,18.49
2017-09-19T00:21:34.958Z,18.61
2017-09-19T00:22:02.916Z,18.63
2017-09-19T00:22:30.853Z,18.5
2017-09-19T00:22:58.824Z,18.59
2017-09-19T00:23:26.916Z,18.56
2017-09-19T00:23:54.906Z,18.56
2017-09-19T00:24:23.106Z,18.5
2017-09-19T00:24:51.064Z,18.6
2017-09-19T00:25:19.160Z,18.53
2017-09-19T00:25:47.262Z,18.59
2017-09-19T00:26:15.241Z,18.49
2017-09-19T00:26:43.169Z,18.5
2017-09-19T00:27:11.124Z,18.5
2017-09-19T00:27:39.141Z,18.51
2017-09-19T00:28:07.097Z,18.49
2017-09-19T00:28:35.073Z,18.53
2017-09-19T00:29:03.071Z,18.53
2017-09-19T00:29:31.273Z,18.49
2017-09-19T00:29:59.331Z,18.59
2017-09-19T00:30:27.217Z,18.49
2017-09-19T00:30:55.109Z,18.49
2017-09-19T00:31:23.217Z,18.49
2017-09-19T00:31:51.010Z,18.51
2017-09-19T00:32:18.778Z,18.49
2017-09-19T00:32:46.791Z,18.49
2017-09-19T00:33:14.647Z,18.49
2017-09-19T00:33:42.753Z,18.44
2017-09-19T00:34:10.688Z,18.51
2017-09-19T00:34:38.778Z,18.49
2017-09-19T00:35:06.863Z,18.53
2017-09-19T00:35:34.850Z,18.5
2017-09-19T00:36:02.610Z,18.53
2017-09-19T00:36:30.510Z,18.49
2017-09-19T00:36:58.576Z,18.51
2017-09-19T00:37:26.475Z,18.51
2017-09-19T00:37:54.459Z,18.53
2017-09-19T00:38:22.434Z,18.49
2017-09-19T00:38:50.217Z,18.49
2017-09-19T00:39:18.292Z,18.56
2017-09-19T00:39:46.181Z,18.51
2017-09-19T00:40:14.242Z,18.5
2017-09-19T00:40:42.337Z,18.51
2017-09-19T00:41:10.340Z,18.47
2017-09-19T00:41:38.363Z,18.5
2017-09-19T00:42:06.415Z,18.53
2017-09-19T00:42:34.330Z,18.44
2017-09-19T00:43:02.421Z,18.45
2017-09-19T00:43:30.284Z,18.5
2017-09-19T00:43:58.346Z,18.49
2017-09-19T00:44:26.492Z,18.51
2017-09-19T00:44:54.474Z,18.56
2017-09-19T00:45:22.457Z,18.53
2017-09-19T00:45:50.346Z,18.45
2017-09-19T00:46:18.430Z,18.51
2017-09-19T00:46:46.530Z,18.5
2017-09-19T00:47:14.597Z,18.53
2017-09-19T00:47:42.584Z,18.6
2017-09-19T00:48:10.615Z,18.61
2017-09-19T00:48:38.604Z,18.6
2017-09-19T00:49:06.584Z,18.47
2017-09-19T00:49:34.588Z,18.49
2017-09-19T00:50:02.420Z,18.5
2017-09-19T00:50:30.269Z,18.5
2017-09-19T00:50:58.225Z,18.5
2017-09-19T00:51:26.348Z,18.45
2017-09-19T00:51:54.417Z,18.47
2017-09-19T00:52:22.486Z,18.38
2017-09-19T00:52:50.475Z,18.39
2017-09-19T00:53:18.572Z,18.39
2017-09-19T00:53:46.531Z,18.39
2017-09-19T00:54:14.595Z,18.38
2017-09-19T00:54:42.681Z,18.35
2017-09-19T00:55:10.671Z,18.32
2017-09-19T00:55:38.735Z,18.36
2017-09-19T00:56:06.517Z,18.39
2017-09-19T00:56:34.627Z,18.42
2017-09-19T00:57:02.537Z,18.34
2017-09-19T00:57:30.311Z,18.36
2017-09-19T00:57:58.169Z,18.36
2017-09-19T00:58:26.078Z,18.47
2017-09-19T00:58:54.078Z,18.49
2017-09-19T00:59:21.894Z,18.54
2017-09-19T00:59:50.166Z,18.49
2017-09-19T01:00:18.151Z,18.49
2017-09-19T01:00:46.260Z,18.49
2017-09-19T01:01:14.236Z,18.57
2017-09-19T01:01:42.329Z,18.49
2017-09-19T01:02:10.307Z,18.51
2017-09-19T01:02:38.372Z,18.6
2017-09-19T01:03:06.449Z,18.56
2017-09-19T01:03:34.511Z,18.59
2017-09-19T01:04:02.503Z,18.51
2017-09-19T01:04:30.674Z,18.5
2017-09-19T01:04:58.642Z,18.56
2017-09-19T01:05:26.640Z,18.49
2017-09-19T01:05:54.732Z,18.49
2017-09-19T01:06:22.497Z,18.44
2017-09-19T01:06:50.568Z,18.34
2017-09-19T01:07:18.568Z,18.27
2017-09-19T01:07:46.659Z,18.26
2017-09-19T01:08:14.639Z,18.23
2017-09-19T01:08:42.684Z,18.35
2017-09-19T01:09:10.633Z,18.27
2017-09-19T01:09:38.722Z,18.23
2017-09-19T01:10:06.805Z,18.21
2017-09-19T01:10:34.859Z,18.29
2017-09-19T01:11:02.918Z,18.21
2017-09-19T01:11:31.000Z,18.31
2017-09-19T01:11:59.049Z,18.26
2017-09-19T01:12:27.032Z,18.32
2017-09-19T01:12:55.035Z,18.26
2017-09-19T01:13:22.899Z,18.42
2017-09-19T01:13:50.789Z,18.41
2017-09-19T01:14:18.764Z,18.39
2017-09-19T01:14:46.949Z,18.38
2017-09-19T01:15:15.057Z,18.39
2017-09-19T01:15:43.147Z,18.35
2017-09-19T01:16:11.026Z,18.39
2017-09-19T01:16:39.083Z,18.38
2017-09-19T01:17:07.218Z,18.26
2017-09-19T01:17:35.282Z,18.26
2017-09-19T01:18:03.359Z,18.29
2017-09-19T01:18:31.452Z,18.32
2017-09-19T01:18:59.378Z,18.29
2017-09-19T01:19:27.191Z,18.31
2017-09-19T01:19:55.277Z,18.35
2017-09-19T01:20:23.338Z,18.32
2017-09-19T01:20:51.298Z,18.29
2017-09-19T01:21:19.396Z,18.26
2017-09-19T01:21:47.404Z,18.34
2017-09-19T01:22:15.459Z,18.27
2017-09-19T01:22:43.360Z,18.34
2017-09-19T01:23:11.419Z,18.29
2017-09-19T01:23:39.385Z,18.26
2017-09-19T01:24:07.387Z,18.32
2017-09-19T01:24:35.353Z,18.32
2017-09-19T01:25:03.319Z,18.32
2017-09-19T01:25:31.413Z,18.24
2017-09-19T01:25:59.337Z,18.31
2017-09-19T01:26:27.269Z,18.29
2017-09-19T01:26:55.222Z,18.31
2017-09-19T01:27:23.197Z,18.29
2017-09-19T01:27:51.193Z,18.27
2017-09-19T01:28:19.290Z,18.31
2017-09-19T01:28:47.163Z,18.26
2017-09-19T01:29:15.024Z,18.24
2017-09-19T01:29:43.195Z,18.24
2017-09-19T01:30:11.290Z,18.2
2017-09-19T01:30:39.263Z,18.26
2017-09-19T01:31:07.344Z,18.31
2017-09-19T01:31:35.374Z,18.27
2017-09-19T01:32:03.262Z,18.27
2017-09-19T01:32:31.102Z,18.34
2017-09-19T01:32:59.074Z,18.31
2017-09-19T01:33:27.032Z,18.29
2017-09-19T01:33:55.101Z,18.27
2017-09-19T01:34:23.202Z,18.36
2017-09-19T01:34:51.415Z,18.27
2017-09-19T01:35:19.422Z,18.39
2017-09-19T01:35:47.562Z,18.36
2017-09-19T01:36:15.659Z,18.32
2017-09-19T01:36:43.769Z,18.32
2017-09-19T01:37:11.745Z,18.35
2017-09-19T01:37:39.609Z,18.31
2017-09-19T01:38:07.566Z,18.26
2017-09-19T01:38:35.534Z,18.29
2017-09-19T01:39:03.505Z,18.31
2017-09-19T01:39:31.483Z,18.26
2017-09-19T01:39:59.688Z,18.32
2017-09-19T01:40:27.774Z,18.31
2017-09-19T01:40:55.765Z,18.24
2017-09-19T01:41:23.365Z,18.26
2017-09-19T01:41:51.373Z,18.31
2017-09-19T01:42:19.041Z,18.27
2017-09-19T01:42:47.022Z,18.32
2017-09-19T01:43:14.938Z,18.26
2017-09-19T01:43:42.832Z,18.24
2017-09-19T01:44:10.707Z,18.24
2017-09-19T01:44:38.584Z,18.31
2017-09-19T01:45:06.783Z,18.31
2017-09-19T01:45:34.665Z,18.24
2017-09-19T01:46:02.744Z,18.27
2017-09-19T01:46:30.668Z,18.13
2017-09-19T01:46:58.627Z,18.23
2017-09-19T01:47:26.606Z,18.27
2017-09-19T01:47:54.591Z,18.16
2017-09-19T01:48:22.491Z,18.11
2017-09-19T01:48:50.294Z,18.1
2017-09-19T01:49:18.271Z,18.24
2017-09-19T01:49:46.264Z,18.19
2017-09-19T01:50:14.265Z,18.23
2017-09-19T01:50:42.262Z,18.26
2017-09-19T01:51:10.233Z,18.21
2017-09-19T01:51:38.325Z,18.26
2017-09-19T01:52:06.198Z,18.23
2017-09-19T01:52:34.207Z,18.29
2017-09-19T01:53:02.166Z,18.24
2017-09-19T01:53:30.192Z,18.31
2017-09-19T01:53:58.187Z,18.23
2017-09-19T01:54:26.264Z,18.26
2017-09-19T01:54:54.173Z,18.29
2017-09-19T01:55:22.269Z,18.24
2017-09-19T01:55:50.349Z,18.23
2017-09-19T01:56:18.420Z,18.26
2017-09-19T01:56:46.215Z,18.21
2017-09-19T01:57:14.085Z,18.21
2017-09-19T01:57:42.166Z,18.11
2017-09-19T01:58:10.138Z,18.2
2017-09-19T01:58:38.121Z,18.1
2017-09-19T01:59:06.206Z,18.17
2017-09-19T01:59:34.211Z,18.24
2017-09-19T02:00:02.274Z,18.11
2017-09-19T02:00:30.262Z,18.11
2017-09-19T02:00:58.353Z,18.13
2017-09-19T02:01:26.312Z,18.19
2017-09-19T02:01:54.416Z,18.13
2017-09-19T02:02:22.221Z,18.11
2017-09-19T02:02:50.140Z,18.08
2017-09-19T02:03:18.036Z,18.11
2017-09-19T02:03:46.094Z,18.13
2017-09-19T02:04:14.048Z,18.03
2017-09-19T02:04:42.010Z,18.06
2017-09-19T02:05:10.083Z,17.95
2017-09-19T02:05:38.153Z,18.05
2017-09-19T02:06:06.062Z,17.94
2017-09-19T02:06:34.085Z,18.01
2017-09-19T02:07:02.144Z,17.94
2017-09-19T02:07:29.954Z,17.96
2017-09-19T02:07:57.881Z,17.99
2017-09-19T02:08:25.957Z,17.96
2017-09-19T02:08:53.975Z,17.92
2017-09-19T02:09:22.084Z,17.9
2017-09-19T02:09:50.167Z,17.99
2017-09-19T02:10:18.367Z,17.88
2017-09-19T02:10:46.346Z,17.88
2017-09-19T02:11:14.367Z,17.9
2017-09-19T02:11:42.438Z,17.86
2017-09-19T02:12:10.563Z,17.83
2017-09-19T02:12:38.461Z,17.86
2017-09-19T02:13:06.478Z,17.83
2017-09-19T02:13:34.477Z,17.79
2017-09-19T02:14:02.353Z,17.83
2017-09-19T02:14:30.321Z,17.8
2017-09-19T02:14:58.417Z,17.88
2017-09-19T02:15:26.594Z,17.92
2017-09-19T02:15:54.712Z,17.88
2017-09-19T02:16:22.761Z,17.88
2017-09-19T02:16:50.656Z,17.9
2017-09-19T02:17:18.725Z,17.87
2017-09-19T02:17:46.704Z,17.8
2017-09-19T02:18:14.684Z,17.81
2017-09-19T02:18:42.559Z,17.79
2017-09-19T02:19:10.442Z,17.76
2017-09-19T02:19:38.408Z,17.83
2017-09-19T02:20:06.502Z,17.86
2017-09-19T02:20:34.337Z,17.79
2017-09-19T02:21:02.317Z,17.76
2017-09-19T02:21:30.413Z,17.76
2017-09-19T02:21:58.531Z,17.73
2017-09-19T02:22:26.615Z,17.6
2017-09-19T02:22:54.583Z,17.6
2017-09-19T02:23:22.683Z,17.79
2017-09-19T02:23:50.760Z,17.66
2017-09-19T02:24:18.631Z,17.66
2017-09-19T02:24:46.719Z,17.66
2017-09-19T02:25:15.052Z,17.71
2017-09-19T02:25:43.036Z,17.63
2017-09-19T02:26:11.096Z,17.62
2017-09-19T02:26:38.982Z,17.63
2017-09-19T02:27:07.061Z,17.6
2017-09-19T02:27:35.114Z,17.63
2017-09-19T02:28:03.119Z,17.58
2017-09-19T02:28:31.244Z,17.6
2017-09-19T02:28:59.310Z,17.65
2017-09-19T02:29:27.411Z,17.52
2017-09-19T02:29:55.360Z,17.52
2017-09-19T02:30:23.449Z,17.5
2017-09-19T02:30:51.353Z,17.49
2017-09-19T02:31:19.450Z,17.5
2017-09-19T02:31:47.414Z,17.55
2017-09-19T02:32:15.505Z,17.5
2017-09-19T02:32:43.602Z,17.55
2017-09-19T02:33:11.407Z,17.54
2017-09-19T02:33:39.465Z,17.54
2017-09-19T02:34:07.547Z,17.55
2017-09-19T02:34:35.556Z,17.49
2017-09-19T02:35:03.454Z,17.5
2017-09-19T02:35:31.624Z,17.54
2017-09-19T02:35:59.705Z,17.54
2017-09-19T02:36:27.849Z,17.52
2017-09-19T02:36:55.745Z,17.49
2017-09-19T02:37:23.741Z,17.55
2017-09-19T02:37:51.709Z,17.52
2017-09-19T02:38:19.808Z,17.46
2017-09-19T02:38:47.879Z,17.46
2017-09-19T02:39:15.990Z,17.43
2017-09-19T02:39:44.101Z,17.45
2017-09-19T02:40:12.013Z,17.46
2017-09-19T02:40:40.221Z,17.43
2017-09-19T02:41:08.304Z,17.42
2017-09-19T02:41:36.275Z,17.39
2017-09-19T02:42:04.384Z,17.35
2017-09-19T02:42:32.181Z,17.4
2017-09-19T02:43:00.214Z,17.42
2017-09-19T02:43:28.269Z,17.4
2017-09-19T02:43:56.290Z,17.4
2017-09-19T02:44:24.294Z,17.36
2017-09-19T02:44:52.343Z,17.38
2017-09-19T02:45:20.359Z,17.39
2017-09-19T02:45:48.243Z,17.42
2017-09-19T02:46:16.328Z,17.46
2017-09-19T02:46:44.234Z,17.35
2017-09-19T02:47:12.022Z,17.43
2017-09-19T02:47:39.996Z,17.39
2017-09-19T02:48:07.930Z,17.4
2017-09-19T02:48:35.721Z,17.45
2017-09-19T02:49:03.715Z,17.39
2017-09-19T02:49:31.679Z,17.43
2017-09-19T02:49:59.691Z,17.42
2017-09-19T02:50:27.883Z,17.46
2017-09-19T02:50:55.866Z,17.42
2017-09-19T02:51:23.893Z,17.43
2017-09-19T02:51:51.984Z,17.39
2017-09-19T02:52:19.951Z,17.32
2017-09-19T02:52:48.051Z,17.4
2017-09-19T02:53:16.063Z,17.32
2017-09-19T02:53:44.155Z,17.38
2017-09-19T02:54:12.159Z,17.3
2017-09-19T02:54:40.232Z,17.35
2017-09-19T02:55:08.124Z,17.38
2017-09-19T02:55:36.315Z,17.3
2017-09-19T02:56:04.309Z,17.36
2017-09-19T02:56:32.395Z,17.28
2017-09-19T02:57:00.361Z,17.25
2017-09-19T02:57:28.496Z,17.38
2017-09-19T02:57:56.599Z,17.32
2017-09-19T02:58:24.630Z,17.36
2017-09-19T02:58:52.518Z,17.31
2017-09-19T02:59:20.521Z,17.32
2017-09-19T02:59:48.617Z,17.31
2017-09-19T03:00:16.420Z,17.31
2017-09-19T03:00:44.511Z,17.32
2017-09-19T03:01:12.602Z,17.28
2017-09-19T03:01:40.695Z,17.31
2017-09-19T03:02:08.821Z,17.28
2017-09-19T03:02:36.773Z,17.35
2017-09-19T03:03:04.765Z,17.36
2017-09-19T03:03:32.526Z,17.32
2017-09-19T03:04:00.511Z,17.3
2017-09-19T03:04:28.459Z,17.32
2017-09-19T03:04:56.432Z,17.32
2017-09-19T03:05:24.432Z,17.36
2017-09-19T03:05:52.409Z,17.35
2017-09-19T03:06:20.499Z,17.36
2017-09-19T03:06:48.552Z,17.31
2017-09-19T03:07:16.445Z,17.39
2017-09-19T03:07:44.541Z,17.28
2017-09-19T03:08:12.541Z,17.32
2017-09-19T03:08:40.548Z,17.31
2017-09-19T03:09:08.459Z,17.38
2017-09-19T03:09:36.434Z,17.32
2017-09-19T03:10:04.415Z,17.32
2017-09-19T03:10:32.506Z,17.35
2017-09-19T03:11:00.621Z,17.31
2017-09-19T03:11:28.683Z,17.35
2017-09-19T03:11:56.783Z,17.24
2017-09-19T03:12:24.878Z,17.24
2017-09-19T03:12:52.972Z,17.22
2017-09-19T03:13:52.684Z,17.2
2017-09-19T03:14:20.805Z,17.24
2017-09-19T03:14:48.785Z,17.25
2017-09-19T03:15:16.879Z,17.18
2017-09-19T03:15:45.210Z,17.2
2017-09-19T03:16:13.240Z,17.2
2017-09-19T03:16:41.297Z,17.3
2017-09-19T03:17:09.381Z,17.22
2017-09-19T03:17:37.482Z,17.22
2017-09-19T03:18:05.528Z,17.25
2017-09-19T03:18:33.599Z,17.22
2017-09-19T03:19:01.408Z,17.3
2017-09-19T03:19:29.487Z,17.22
2017-09-19T03:19:57.721Z,17.22
2017-09-19T03:20:25.829Z,17.12
2017-09-19T03:20:54.212Z,17.13
2017-09-19T03:21:22.318Z,17.17
2017-09-19T03:21:50.337Z,17.12
2017-09-19T03:22:18.297Z,17.2
2017-09-19T03:22:46.509Z,17.1
2017-09-19T03:23:14.594Z,17.13
2017-09-19T03:23:42.699Z,17.07
2017-09-19T03:24:10.854Z,17.13
2017-09-19T03:24:38.788Z,17.24
2017-09-19T03:25:06.747Z,17.15
2017-09-19T03:25:34.613Z,17.21
2017-09-19T03:26:02.700Z,17.27
2017-09-19T03:26:30.868Z,17.13
2017-09-19T03:26:58.939Z,17.13
2017-09-19T03:27:26.910Z,17.24
2017-09-19T03:27:55.060Z,17.12
2017-09-19T03:28:23.004Z,17.24
2017-09-19T03:28:51.172Z,17.1
2017-09-19T03:29:19.023Z,17.2
2017-09-19T03:29:47.143Z,17.22
2017-09-19T03:30:15.206Z,17.15
2017-09-19T03:30:43.407Z,17.12
2017-09-19T03:31:11.472Z,17.2
2017-09-19T03:31:39.454Z,17.13
2017-09-19T03:32:07.637Z,17.17
2017-09-19T03:32:35.817Z,17.18
2017-09-19T03:33:03.896Z,17.13
2017-09-19T03:33:31.818Z,17.15
2017-09-19T03:33:59.913Z,17.12
2017-09-19T03:34:27.876Z,17.12
2017-09-19T03:34:55.878Z,17.17
2017-09-19T03:35:24.030Z,17.17
2017-09-19T03:35:52.186Z,17.1
2017-09-19T03:36:20.242Z,17.13
2017-09-19T03:36:48.218Z,17.07
2017-09-19T03:37:16.189Z,17.15
2017-09-19T03:37:44.366Z,17.12
2017-09-19T03:38:12.430Z,17.15
2017-09-19T03:38:40.593Z,17.06
2017-09-19T03:39:08.464Z,17.05
2017-09-19T03:39:36.528Z,17.07
2017-09-19T03:40:04.582Z,17.1
2017-09-19T03:40:32.662Z,17.03
2017-09-19T03:41:00.734Z,17.06
2017-09-19T03:41:28.889Z,17.09
2017-09-19T03:41:57.058Z,17.06
2017-09-19T03:42:24.925Z,17.06
2017-09-19T03:42:52.841Z,17.09
2017-09-19T03:43:20.838Z,17.05
2017-09-19T03:43:48.924Z,17
2017-09-19T03:44:16.915Z,16.99
2017-09-19T03:44:45.011Z,16.94
2017-09-19T03:45:13.130Z,16.91
2017-09-19T03:45:40.908Z,16.99
2017-09-19T03:46:08.995Z,17.03
2017-09-19T03:46:37.071Z,16.91
2017-09-19T03:47:05.240Z,16.95
2017-09-19T03:47:33.320Z,16.91
2017-09-19T03:48:01.476Z,17.06
2017-09-19T03:48:29.551Z,17.05
2017-09-19T03:48:57.543Z,16.99
2017-09-19T03:49:25.501Z,17.02
2017-09-19T03:49:53.582Z,17.05
2017-09-19T03:50:21.557Z,17.03
2017-09-19T03:50:49.718Z,17.12
2017-09-19T03:51:17.896Z,17.1
2017-09-19T03:51:46.034Z,17.07
2017-09-19T03:52:14.134Z,17.05
2017-09-19T03:52:42.215Z,16.99
2017-09-19T03:53:10.357Z,17.06
2017-09-19T03:53:38.529Z,17.07
2017-09-19T03:54:06.566Z,17.07
2017-09-19T03:54:34.647Z,17.09
2017-09-19T03:55:02.634Z,17.12
2017-09-19T03:55:30.693Z,17.17
2017-09-19T03:55:58.991Z,17.1
2017-09-19T03:56:26.745Z,17.1
2017-09-19T03:56:54.819Z,17.09
2017-09-19T03:57:22.767Z,17.15
2017-09-19T03:57:50.765Z,17.15
2017-09-19T03:58:18.816Z,17.1
2017-09-19T03:58:46.878Z,17.09
2017-09-19T03:59:15.054Z,17.07
2017-09-19T03:59:43.013Z,17.09
2017-09-19T04:00:11.082Z,17.03
2017-09-19T04:00:39.169Z,17.03
2017-09-19T04:01:07.169Z,17.05
2017-09-19T04:01:35.251Z,17.1
2017-09-19T04:02:03.363Z,17
2017-09-19T04:02:31.448Z,16.99
2017-09-19T04:02:59.424Z,17
2017-09-19T04:03:27.628Z,17.12
2017-09-19T04:03:55.803Z,17.05
2017-09-19T04:04:23.849Z,16.99
2017-09-19T04:04:51.894Z,17.03
2017-09-19T04:05:20.044Z,17.06
2017-09-19T04:05:48.131Z,17.07
2017-09-19T04:06:16.332Z,17.05
2017-09-19T04:06:44.432Z,17.05
2017-09-19T04:07:12.305Z,16.94
2017-09-19T04:07:40.469Z,17.03
2017-09-19T04:08:08.566Z,16.97
2017-09-19T04:08:36.736Z,16.95
2017-09-19T04:09:04.827Z,16.91
2017-09-19T04:09:32.918Z,16.94
2017-09-19T04:10:01.099Z,16.92
2017-09-19T04:10:29.159Z,16.97
2017-09-19T04:10:57.270Z,17.09
2017-09-19T04:11:25.546Z,16.92
2017-09-19T04:11:53.594Z,16.9
2017-09-19T04:12:21.779Z,17.02
2017-09-19T04:12:49.974Z,16.94
2017-09-19T04:13:18.045Z,16.92
2017-09-19T04:13:46.249Z,16.94
2017-09-19T04:14:14.227Z,16.97
2017-09-19T04:14:42.322Z,16.97
2017-09-19T04:15:10.470Z,16.97
2017-09-19T04:15:38.445Z,17
2017-09-19T04:16:06.407Z,17.02
2017-09-19T04:16:34.577Z,16.99
2017-09-19T04:17:02.735Z,16.94
2017-09-19T04:17:30.834Z,16.91
2017-09-19T04:17:58.723Z,16.9
2017-09-19T04:18:26.882Z,16.97
2017-09-19T04:18:54.851Z,16.91
2017-09-19T04:19:22.889Z,17.06
2017-09-19T04:19:50.854Z,17.07
2017-09-19T04:20:18.495Z,17.06
2017-09-19T04:20:46.490Z,17.05
2017-09-19T04:21:14.642Z,17.1
2017-09-19T04:21:42.573Z,17.1
2017-09-19T04:22:10.523Z,17.15
2017-09-19T04:22:38.289Z,17.17
2017-09-19T04:23:06.171Z,17.15
2017-09-19T04:23:34.130Z,17.2
2017-09-19T04:24:02.330Z,17.25
2017-09-19T04:24:30.296Z,17.21
2017-09-19T04:24:58.252Z,17.18
2017-09-19T04:25:26.318Z,17.24
2017-09-19T04:25:54.195Z,17.35
2017-09-19T04:26:22.372Z,17.36
2017-09-19T04:26:50.454Z,17.28
2017-09-19T04:27:18.443Z,17.3
2017-09-19T04:27:46.489Z,17.38
2017-09-19T04:28:14.485Z,17.31
2017-09-19T04:28:42.571Z,17.31
2017-09-19T04:29:10.762Z,17.31
2017-09-19T04:29:38.840Z,17.38
2017-09-19T04:30:06.921Z,17.4
2017-09-19T04:30:35.071Z,17.4
2017-09-19T04:31:02.914Z,17.32
2017-09-19T04:31:31.170Z,17.39
2017-09-19T04:31:59.276Z,17.36
2017-09-19T04:32:27.347Z,17.32
2017-09-19T04:32:55.526Z,17.32
2017-09-19T04:33:23.743Z,17.35
2017-09-19T04:33:51.887Z,17.28
2017-09-19T04:34:19.875Z,17.32
2017-09-19T04:34:48.027Z,17.22
2017-09-19T04:35:16.126Z,17.2
2017-09-19T04:35:44.137Z,17.2
2017-09-19T04:36:12.291Z,17.2
2017-09-19T04:36:40.550Z,17.22
2017-09-19T04:37:08.641Z,17.17
2017-09-19T04:37:36.723Z,17.17
2017-09-19T04:38:04.610Z,17.2
2017-09-19T04:38:32.677Z,17.18
2017-09-19T04:39:00.740Z,17.07
2017-09-19T04:39:28.828Z,17.13
2017-09-19T04:39:56.876Z,17.09
2017-09-19T04:40:25.081Z,17.06
2017-09-19T04:40:53.156Z,17
2017-09-19T04:41:21.232Z,17.05
2017-09-19T04:41:49.311Z,16.97
2017-09-19T04:42:17.490Z,17.06
2017-09-19T04:42:45.500Z,16.91
2017-09-19T04:43:13.581Z,16.99
2017-09-19T04:43:41.591Z,16.92
2017-09-19T04:44:09.809Z,17.02
2017-09-19T04:44:37.668Z,17.02
2017-09-19T04:45:05.614Z,16.88
2017-09-19T04:45:33.597Z,16.88
2017-09-19T04:46:01.694Z,16.92
2017-09-19T04:46:29.945Z,16.92
2017-09-19T04:46:57.922Z,16.99
2017-09-19T04:47:25.890Z,16.99
2017-09-19T04:47:53.998Z,16.88
2017-09-19T04:48:22.006Z,16.97
2017-09-19T04:48:50.091Z,16.97
2017-09-19T04:49:17.960Z,16.92
2017-09-19T04:49:46.008Z,17
2017-09-19T04:50:13.953Z,17.02
2017-09-19T04:50:42.104Z,17
2017-09-19T04:51:10.302Z,16.99
2017-09-19T04:51:38.577Z,16.97
2017-09-19T04:52:06.601Z,17.03
2017-09-19T04:52:34.750Z,16.94
2017-09-19T04:53:02.791Z,17.03
2017-09-19T04:53:30.749Z,17.03
2017-09-19T04:53:58.827Z,17
2017-09-19T04:54:26.878Z,17.03
2017-09-19T04:54:54.859Z,16.97
2017-09-19T04:55:22.843Z,17.02
2017-09-19T04:55:51.006Z,17.05
2017-09-19T04:56:19.075Z,17.05
2017-09-19T04:56:47.334Z,17
2017-09-19T04:57:15.225Z,16.99
2017-09-19T04:57:43.294Z,17.07
2017-09-19T04:58:11.362Z,17.05
2017-09-19T04:58:39.452Z,17.1
2017-09-19T04:59:07.537Z,17.07
2017-09-19T04:59:35.600Z,17.13
2017-09-19T05:00:03.678Z,17.06
2017-09-19T05:00:31.639Z,17.09
2017-09-19T05:00:59.605Z,17.15
2017-09-19T05:01:27.571Z,17.12
2017-09-19T05:01:55.654Z,17.13
2017-09-19T05:02:23.729Z,17.15
2017-09-19T05:02:51.412Z,17.21
2017-09-19T05:03:19.403Z,17.13
2017-09-19T05:03:47.485Z,17.15
2017-09-19T05:04:15.488Z,17.15
2017-09-19T05:04:43.644Z,17.27
2017-09-19T05:05:11.695Z,17.25
2017-09-19T05:05:39.708Z,17.2
2017-09-19T05:06:07.917Z,17.28
2017-09-19T05:06:36.066Z,17.35
2017-09-19T05:07:04.229Z,17.24
2017-09-19T05:07:32.426Z,17.36
2017-09-19T05:08:00.471Z,17.39
2017-09-19T05:08:28.715Z,17.38
2017-09-19T05:08:56.759Z,17.38
2017-09-19T05:09:24.908Z,17.32
2017-09-19T05:09:52.949Z,17.36
2017-09-19T05:10:20.882Z,17.36
2017-09-19T05:10:48.992Z,17.35
2017-09-19T05:11:16.881Z,17.39
2017-09-19T05:11:44.945Z,17.35
2017-09-19T05:12:12.820Z,17.43
2017-09-19T05:12:40.715Z,17.43
2017-09-19T05:13:08.906Z,17.4
2017-09-19T05:13:36.875Z,17.4
2017-09-19T05:14:05.037Z,17.45
2017-09-19T05:14:33.163Z,17.43
2017-09-19T05:15:01.334Z,17.46
2017-09-19T05:15:29.503Z,17.42
2017-09-19T05:15:57.692Z,17.45
2017-09-19T05:16:25.763Z,17.46
2017-09-19T05:16:54.049Z,17.45
2017-09-19T05:17:22.215Z,17.52
2017-09-19T05:17:50.372Z,17.54
2017-09-19T05:18:18.546Z,17.52
2017-09-19T05:18:46.741Z,17.5
2017-09-19T05:19:14.786Z,17.49
2017-09-19T05:19:42.845Z,17.5
2017-09-19T05:20:10.992Z,17.54
2017-09-19T05:20:39.066Z,17.52
2017-09-19T05:21:07.027Z,17.54
2017-09-19T05:21:35.204Z,17.52
2017-09-19T05:22:03.358Z,17.52
2017-09-19T05:22:31.447Z,17.5
2017-09-19T05:22:59.432Z,17.5
2017-09-19T05:23:27.535Z,17.55
2017-09-19T05:23:55.600Z,17.47
2017-09-19T05:24:23.663Z,17.42
2017-09-19T05:24:51.830Z,17.5
2017-09-19T05:25:19.995Z,17.43
2017-09-19T05:25:47.865Z,17.46
2017-09-19T05:26:15.726Z,17.54
2017-09-19T05:26:43.877Z,17.43
2017-09-19T05:27:12.022Z,17.45
2017-09-19T05:27:40.116Z,17.49
2017-09-19T05:28:08.204Z,17.52
2017-09-19T05:28:36.397Z,17.42
2017-09-19T05:29:04.588Z,17.5
2017-09-19T05:29:32.662Z,17.52
2017-09-19T05:30:00.737Z,17.49
2017-09-19T05:30:28.792Z,17.54
2017-09-19T05:30:56.885Z,17.47
2017-09-19T05:31:24.928Z,17.5
2017-09-19T05:31:53.090Z,17.52
2017-09-19T05:32:21.257Z,17.54
2017-09-19T05:32:49.425Z,17.54
2017-09-19T05:33:17.573Z,17.49
2017-09-19T05:33:45.716Z,17.5
2017-09-19T05:34:13.903Z,17.52
2017-09-19T05:34:41.873Z,17.5
2017-09-19T05:35:09.843Z,17.54
2017-09-19T05:35:37.947Z,17.5
2017-09-19T05:36:06.120Z,17.5
2017-09-19T05:36:34.221Z,17.52
2017-09-19T05:37:02.542Z,17.54
2017-09-19T05:37:30.615Z,17.55
2017-09-19T05:37:58.785Z,17.5
2017-09-19T05:38:26.790Z,17.5
2017-09-19T05:38:54.766Z,17.5
2017-09-19T05:39:22.624Z,17.52
2017-09-19T05:39:50.728Z,17.57
2017-09-19T05:40:18.790Z,17.54
2017-09-19T05:40:46.781Z,17.57
2017-09-19T05:41:14.838Z,17.54
2017-09-19T05:41:42.925Z,17.55
2017-09-19T05:42:11.009Z,17.52
2017-09-19T05:42:39.195Z,17.52
2017-09-19T05:43:07.075Z,17.5
2017-09-19T05:43:34.941Z,17.5
2017-09-19T05:44:03.004Z,17.49
2017-09-19T05:44:30.978Z,17.5
2017-09-19T05:44:59.068Z,17.65
2017-09-19T05:45:27.033Z,17.52
2017-09-19T05:45:55.219Z,17.58
2017-09-19T05:46:23.085Z,17.58
2017-09-19T05:46:51.122Z,17.65
2017-09-19T05:47:19.179Z,17.62
2017-09-19T05:47:47.267Z,17.6
2017-09-19T05:48:15.317Z,17.63
2017-09-19T05:48:43.188Z,17.69
2017-09-19T05:49:11.385Z,17.62
2017-09-19T05:49:39.396Z,17.69
2017-09-19T05:50:07.383Z,17.68
2017-09-19T05:50:35.238Z,17.66
2017-09-19T05:51:03.213Z,17.66
2017-09-19T05:51:31.297Z,17.66
2017-09-19T05:51:59.487Z,17.65
2017-09-19T05:52:27.694Z,17.66
2017-09-19T05:52:55.683Z,17.62
2017-09-19T05:53:23.844Z,17.69
2017-09-19T05:53:51.986Z,17.66
2017-09-19T05:54:20.041Z,17.63
2017-09-19T05:54:47.949Z,17.66
2017-09-19T05:55:16.147Z,17.66
2017-09-19T05:55:44.325Z,17.65
2017-09-19T05:56:12.393Z,17.66
2017-09-19T05:56:40.419Z,17.68
2017-09-19T05:57:08.507Z,17.65
2017-09-19T05:57:36.686Z,17.62
2017-09-19T05:58:04.653Z,17.63
2017-09-19T05:58:32.618Z,17.65
2017-09-19T05:59:00.828Z,17.68
2017-09-19T05:59:29.007Z,17.65
2017-09-19T05:59:57.104Z,17.62
2017-09-19T06:00:25.196Z,17.63
2017-09-19T06:00:53.296Z,17.66
2017-09-19T06:01:21.381Z,17.63
2017-09-19T06:01:49.579Z,17.69
2017-09-19T06:02:17.677Z,17.76
2017-09-19T06:02:45.863Z,17.79
2017-09-19T06:03:14.033Z,17.6